Time;durP1;ratioP1;P1;durP2;ratioP2;P2;SDS_P1;SDS_P2;PMS_P1;PMS_P2;Temp;Humidity;BMP_temperature;BMP_pressure;BME280_temperature;BME280_humidity;BME280_pressure;Samples;Min_cycle;Max_cycle;Signal;HPM_P1;HPM_P2
2023/10/16 07:33:33;;;;;;;1.07;0.67;;;8.80;99.90;;;;;;3063003;23;20238;-78
2023/10/16 07:36:00;;;;;;;1.07;0.67;;;9.30;99.90;;;;;;4918642;29;20214;-77
2023/10/16 07:38:29;;;;;;;1.10;0.67;;;9.50;99.90;;;;;;4919317;29;20248;-76
2023/10/16 07:40:57;;;;;;;3.80;0.83;;;9.50;99.90;;;;;;4918975;29;20316;-77
2023/10/16 07:43:26;;;;;;;1.90;0.77;;;9.40;99.90;;;;;;4918907;29;20237;-78
2023/10/16 07:46:07;;;;;;;1.40;0.80;;;9.20;99.90;;;;;;4919137;29;20216;-79
2023/10/16 07:48:37;;;;;;;2.03;0.93;;;9.20;99.90;;;;;;4919083;29;20304;-78
2023/10/16 07:51:06;;;;;;;4.60;0.80;;;9.40;99.90;;;;;;4919012;29;20285;-80
2023/10/16 07:53:34;;;;;;;1.50;0.83;;;9.60;99.90;;;;;;4918821;29;20284;-80
2023/10/16 07:56:02;;;;;;;4.13;1.07;;;9.70;99.90;;;;;;4918861;29;20228;-78
2023/10/16 07:58:33;;;;;;;2.13;0.90;;;10.10;99.90;;;;;;4918638;29;20217;-79
2023/10/16 08:01:17;;;;;;;1.70;1.00;;;10.60;99.90;;;;;;4918713;29;20256;-79
2023/10/16 08:03:47;;;;;;;1.60;1.00;;;10.90;99.90;;;;;;4918961;29;20209;-80
2023/10/16 08:06:23;;;;;;;1.50;0.80;;;11.30;99.90;;;;;;4917595;29;20308;-80
2023/10/16 08:08:50;;;;;;;2.37;1.20;;;11.40;99.90;;;;;;4918791;29;20245;-79
2023/10/16 08:11:20;;;;;;;2.17;0.83;;;11.40;99.90;;;;;;4918381;29;20713;-79
2023/10/16 08:13:49;;;;;;;3.50;1.50;;;11.60;99.90;;;;;;4918282;29;20240;-79
2023/10/16 08:16:19;;;;;;;1.47;0.90;;;11.90;99.90;;;;;;4918360;29;20216;-81
2023/10/16 08:18:50;;;;;;;3.83;1.00;;;12.00;99.90;;;;;;4918156;29;20668;-75
2023/10/16 08:21:24;;;;;;;3.17;0.90;;;11.90;99.90;;;;;;4918278;29;20280;-78
2023/10/16 08:23:59;;;;;;;2.23;0.77;;;11.70;99.90;;;;;;4918485;29;20213;-79
2023/10/16 08:26:41;;;;;;;5.57;1.40;;;11.60;99.90;;;;;;4918482;29;20316;-76
2023/10/16 08:29:17;;;;;;;3.00;1.30;;;11.60;99.90;;;;;;4918410;29;20209;-80
2023/10/16 08:31:45;;;;;;;1.73;0.90;;;11.80;99.90;;;;;;4918105;29;20229;-80
2023/10/16 08:34:19;;;;;;;3.10;1.17;;;11.90;99.90;;;;;;4918424;29;20276;-88
2023/10/16 08:36:48;;;;;;;4.10;0.90;;;12.10;99.90;;;;;;4918843;29;20209;-76
2023/10/16 08:39:16;;;;;;;2.20;1.00;;;12.20;99.90;;;;;;4916115;29;20214;-75
2023/10/16 08:41:51;;;;;;;4.17;1.47;;;12.10;99.90;;;;;;4914240;29;20225;-76
2023/10/16 08:44:21;;;;;;;3.33;1.27;;;12.20;99.90;;;;;;4917002;29;20217;-77
2023/10/16 08:49:38;;;;;;;1.63;0.80;;;13.00;99.90;;;;;;4916025;29;20228;-78
2023/10/16 08:52:10;;;;;;;1.30;0.70;;;13.20;99.90;;;;;;4915799;29;20226;-77
2023/10/16 08:55:00;;;;;;;2.70;0.60;;;13.00;99.90;;;;;;4915622;29;20705;-78
2023/10/16 08:57:27;;;;;;;1.93;0.70;;;12.60;99.90;;;;;;4916346;29;20625;-75
2023/10/16 08:59:58;;;;;;;3.73;0.70;;;12.20;99.90;;;;;;4916493;29;20564;-77
2023/10/16 09:02:27;;;;;;;2.60;0.73;;;12.10;99.90;;;;;;4911036;29;20240;-77
2023/10/16 09:04:57;;;;;;;3.67;0.53;;;12.20;99.90;;;;;;4913588;29;20678;-72
2023/10/16 09:07:25;;;;;;;2.50;0.77;;;12.00;99.90;;;;;;4916161;29;20237;-73
2023/10/16 09:09:55;;;;;;;2.60;0.80;;;12.00;99.90;;;;;;4914841;29;20546;-72
2023/10/16 09:12:26;;;;;;;3.53;0.50;;;12.10;99.90;;;;;;4915670;29;20212;-73
2023/10/16 09:14:53;;;;;;;2.97;0.63;;;12.00;99.90;;;;;;4915595;29;20241;-71
2023/10/16 09:17:24;;;;;;;4.83;0.80;;;12.30;99.90;;;;;;4914953;29;20209;-73
2023/10/16 09:19:53;;;;;;;2.03;0.70;;;12.50;99.90;;;;;;4915593;29;20261;-73
2023/10/16 09:22:26;;;;;;;0.83;0.50;;;12.60;99.90;;;;;;4915659;29;20212;-72
2023/10/16 09:24:53;;;;;;;2.00;0.60;;;12.50;99.90;;;;;;4915554;29;20219;-72
2023/10/16 09:27:29;;;;;;;2.20;0.60;;;12.40;99.90;;;;;;4915141;29;20249;-72
2023/10/16 09:30:00;;;;;;;1.63;0.60;;;12.30;99.90;;;;;;4915098;29;20220;-72
2023/10/16 09:32:36;;;;;;;3.73;0.70;;;12.10;99.90;;;;;;4914738;29;20224;-72
2023/10/16 09:35:06;;;;;;;2.37;0.73;;;12.20;99.90;;;;;;4915207;29;20324;-75
2023/10/16 09:37:35;;;;;;;0.93;0.50;;;12.20;99.90;;;;;;4914669;29;20305;-75
2023/10/16 09:40:08;;;;;;;4.77;0.90;;;12.30;99.90;;;;;;4915025;29;20311;-74
2023/10/16 09:42:45;;;;;;;6.40;0.90;;;12.10;99.90;;;;;;4914912;29;20220;-73
2023/10/16 09:45:18;;;;;;;2.10;0.63;;;11.80;99.90;;;;;;4915682;29;20589;-75
2023/10/16 09:47:48;;;;;;;3.23;0.87;;;11.70;99.90;;;;;;4914557;29;20205;-75
2023/10/16 09:50:18;;;;;;;3.33;0.80;;;11.70;99.90;;;;;;4914873;29;20286;-75
2023/10/16 09:52:48;;;;;;;1.53;0.80;;;11.80;99.90;;;;;;4914652;29;20728;-74
2023/10/16 09:55:18;;;;;;;2.83;0.90;;;12.00;99.90;;;;;;4914861;29;20245;-74
2023/10/16 09:57:49;;;;;;;4.60;0.70;;;12.10;99.90;;;;;;4915005;29;20214;-75
2023/10/16 10:00:28;;;;;;;4.53;0.70;;;12.10;99.90;;;;;;4915119;29;20241;-72
2023/10/16 10:02:59;;;;;;;1.90;0.60;;;12.20;99.90;;;;;;4914314;29;20723;-72
2023/10/16 10:05:34;;;;;;;1.63;0.50;;;12.20;99.90;;;;;;4914387;29;20209;-72
2023/10/16 10:08:15;;;;;;;1.40;0.57;;;12.00;99.90;;;;;;4914265;29;20680;-72
2023/10/16 10:13:34;;;;;;;3.10;0.40;;;12.00;99.90;;;;;;4914528;29;20224;-74
2023/10/16 10:16:10;;;;;;;2.90;0.67;;;11.80;99.90;;;;;;4914247;29;20245;-73
2023/10/16 10:18:44;;;;;;;3.03;0.57;;;11.60;99.90;;;;;;4914336;29;20295;-71
2023/10/16 10:21:28;;;;;;;1.93;0.80;;;11.60;99.90;;;;;;4914159;29;20236;-73
2023/10/16 10:24:02;;;;;;;2.83;0.77;;;11.70;99.90;;;;;;4912633;29;20209;-73
2023/10/16 10:26:32;;;;;;;1.77;0.60;;;11.80;99.90;;;;;;4914724;29;20214;-73
2023/10/16 10:29:09;;;;;;;2.77;1.27;;;12.00;99.90;;;;;;4916965;29;20209;-72
2023/10/16 10:31:37;;;;;;;2.43;0.70;;;12.10;99.90;;;;;;4901696;29;20313;-72
2023/10/16 10:34:22;;;;;;;2.13;0.50;;;12.20;99.90;;;;;;4917834;29;20217;-73
2023/10/16 10:36:50;;;;;;;2.10;0.53;;;12.40;99.90;;;;;;4918531;29;20265;-73
2023/10/16 10:39:43;;;;;;;0.90;0.40;;;12.60;99.90;;;;;;4917753;29;20205;-71
2023/10/16 10:42:16;;;;;;;1.37;0.50;;;12.60;99.90;;;;;;4917958;29;20257;-74
2023/10/16 10:44:53;;;;;;;2.20;0.53;;;12.70;99.90;;;;;;4918275;29;20216;-74
2023/10/16 10:47:21;;;;;;;0.80;0.33;;;12.80;99.90;;;;;;4917547;29;20214;-75
2023/10/16 10:49:50;;;;;;;1.10;0.50;;;12.70;99.90;;;;;;4917981;29;20210;-73
2023/10/16 10:52:20;;;;;;;1.73;0.40;;;12.40;99.90;;;;;;4918192;29;20205;-73
2023/10/16 10:54:58;;;;;;;0.93;0.30;;;12.30;99.90;;;;;;4917326;29;20229;-79
2023/10/16 10:57:26;;;;;;;1.43;0.50;;;12.30;99.90;;;;;;4918183;29;20661;-80
2023/10/16 10:59:56;;;;;;;0.50;0.40;;;12.30;99.90;;;;;;4917618;29;20237;-80
2023/10/16 11:02:48;;;;;;;1.20;0.43;;;12.40;99.90;;;;;;4918636;29;20288;-80
2023/10/16 11:05:24;;;;;;;1.87;0.60;;;12.30;99.90;;;;;;4918042;29;20244;-79
2023/10/16 11:10:46;;;;;;;1.00;0.40;;;12.60;99.90;;;;;;4907367;29;20230;-79
2023/10/16 11:13:15;;;;;;;0.60;0.47;;;12.60;99.90;;;;;;4917542;29;20213;-79
2023/10/16 11:15:46;;;;;;;2.17;0.50;;;12.60;99.90;;;;;;4917450;29;20239;-79
2023/10/16 11:18:18;;;;;;;1.50;0.50;;;12.70;99.90;;;;;;4917664;29;20241;-79
2023/10/16 11:20:46;;;;;;;1.40;0.70;;;12.80;99.90;;;;;;4917539;29;20293;-80
2023/10/16 11:23:14;;;;;;;1.73;0.50;;;12.90;99.90;;;;;;4918554;29;20210;-79
2023/10/16 11:25:44;;;;;;;1.87;0.80;;;13.10;99.90;;;;;;4918504;29;20264;-80
2023/10/16 11:28:17;;;;;;;0.90;0.50;;;12.70;99.90;;;;;;4917582;29;20220;-79
2023/10/16 11:30:46;;;;;;;2.40;0.47;;;12.70;99.90;;;;;;4912463;29;20592;-77
2023/10/16 11:33:13;;;;;;;2.30;0.57;;;12.70;99.90;;;;;;4900910;29;20226;-78
2023/10/16 11:35:46;;;;;;;2.40;0.97;;;12.70;99.90;;;;;;4903666;29;20245;-79
2023/10/16 11:38:19;;;;;;;0.60;0.50;;;12.70;99.90;;;;;;4915908;29;20213;-80
2023/10/16 11:40:50;;;;;;;0.60;0.47;;;12.70;99.90;;;;;;4912765;29;20238;-77
2023/10/16 11:43:19;;;;;;;0.83;0.47;;;12.80;99.90;;;;;;4916444;29;20221;-77
2023/10/16 11:45:53;;;;;;;1.60;0.47;;;12.80;99.90;;;;;;4916616;29;20462;-76
2023/10/16 11:48:29;;;;;;;2.00;0.47;;;12.80;99.90;;;;;;4916947;29;20221;-77
2023/10/16 11:51:06;;;;;;;1.97;0.57;;;12.60;99.90;;;;;;4916340;29;20649;-80
2023/10/16 11:53:34;;;;;;;2.10;0.30;;;12.80;99.90;;;;;;4916257;29;20214;-80
2023/10/16 11:56:03;;;;;;;1.93;0.50;;;12.60;99.90;;;;;;4915853;29;20233;-76
2023/10/16 11:58:31;;;;;;;3.90;0.40;;;12.50;99.90;;;;;;4916994;29;20217;-78
2023/10/16 12:01:08;;;;;;;2.13;0.50;;;12.60;99.90;;;;;;4915850;29;20261;-80
2023/10/16 12:03:37;;;;;;;1.87;0.50;;;12.80;99.90;;;;;;4910425;29;20216;-78
2023/10/16 12:06:09;;;;;;;4.73;0.70;;;12.80;99.90;;;;;;4897683;29;20561;-76
2023/10/16 12:08:40;;;;;;;1.13;0.40;;;13.20;99.90;;;;;;4916115;29;20210;-77
2023/10/16 12:11:13;;;;;;;0.60;0.37;;;13.30;99.90;;;;;;4914384;29;20237;-77
2023/10/16 12:13:41;;;;;;;1.47;0.60;;;13.20;99.90;;;;;;4913288;29;20300;-77
2023/10/16 12:16:08;;;;;;;1.73;0.50;;;12.90;99.90;;;;;;4916259;29;20276;-76
2023/10/16 12:18:34;;;;;;;1.73;0.90;;;12.90;99.90;;;;;;4916139;29;20209;-77
2023/10/16 12:21:05;;;;;;;4.80;0.57;;;12.90;99.90;;;;;;4916363;29;20233;-76
2023/10/16 12:23:37;;;;;;;3.03;0.97;;;13.10;99.90;;;;;;4911603;29;20296;-73
2023/10/16 12:26:07;;;;;;;5.83;1.87;;;13.10;99.90;;;;;;4915118;29;20206;-77
2023/10/16 12:28:35;;;;;;;2.93;0.53;;;13.10;99.90;;;;;;4916591;29;20208;-76
2023/10/16 12:31:04;;;;;;;2.60;0.50;;;13.20;99.90;;;;;;4915748;29;20237;-77
2023/10/16 12:33:31;;;;;;;2.97;0.60;;;13.10;99.90;;;;;;4916098;29;20269;-76
2023/10/16 12:36:01;;;;;;;6.10;0.40;;;12.80;99.90;;;;;;4915586;29;20672;-75
2023/10/16 12:38:29;;;;;;;1.63;0.30;;;12.80;99.90;;;;;;4915451;29;20689;-72
2023/10/16 12:40:59;;;;;;;3.10;0.50;;;12.90;99.90;;;;;;4916031;29;20637;-73
2023/10/16 12:43:27;;;;;;;1.47;0.20;;;13.00;99.90;;;;;;4915820;29;20205;-74
2023/10/16 12:45:57;;;;;;;1.40;0.37;;;12.80;99.90;;;;;;4916506;29;20217;-73
2023/10/16 12:48:28;;;;;;;1.40;0.30;;;12.60;99.90;;;;;;4916056;29;20859;-74
2023/10/16 12:50:59;;;;;;;0.53;0.20;;;12.60;99.90;;;;;;4914973;29;20229;-74
2023/10/16 12:53:27;;;;;;;1.33;0.30;;;12.70;99.90;;;;;;4915826;29;20216;-73
2023/10/16 12:55:58;;;;;;;1.70;0.40;;;12.60;99.90;;;;;;4915686;29;20683;-74
2023/10/16 12:58:26;;;;;;;0.60;0.20;;;12.50;99.90;;;;;;4915497;29;20309;-73
2023/10/16 13:00:52;;;;;;;1.20;0.33;;;12.60;99.90;;;;;;4915781;29;20281;-73
2023/10/16 13:03:22;;;;;;;1.57;0.40;;;12.60;99.90;;;;;;4916066;29;20213;-73
2023/10/16 13:05:50;;;;;;;1.83;0.40;;;12.80;99.90;;;;;;4896771;29;20228;-71
2023/10/16 13:08:20;;;;;;;3.03;0.53;;;12.70;99.90;;;;;;4897047;29;20222;-73
2023/10/16 13:10:48;;;;;;;2.03;0.50;;;12.70;99.90;;;;;;4915779;29;20229;-71
2023/10/16 13:13:20;;;;;;;0.50;0.30;;;12.90;99.90;;;;;;4915194;29;20212;-72
2023/10/16 13:15:51;;;;;;;2.80;0.40;;;13.00;99.90;;;;;;4915412;29;20296;-73
2023/10/16 13:18:26;;;;;;;2.43;0.63;;;12.90;99.90;;;;;;4915576;29;20322;-74
2023/10/16 13:20:57;;;;;;;2.07;0.33;;;12.90;99.90;;;;;;4914540;29;20229;-74
2023/10/16 13:23:26;;;;;;;2.00;0.40;;;12.90;99.90;;;;;;4915826;29;20237;-73
2023/10/16 13:25:56;;;;;;;0.90;0.20;;;12.90;99.90;;;;;;4915358;29;20764;-74
2023/10/16 13:28:23;;;;;;;0.63;0.30;;;13.10;99.90;;;;;;4915181;29;20220;-74
2023/10/16 13:30:52;;;;;;;2.23;0.47;;;13.30;99.90;;;;;;4915731;29;20233;-72
2023/10/16 13:33:19;;;;;;;2.23;0.40;;;13.50;99.90;;;;;;4914728;29;20217;-73
2023/10/16 13:35:46;;;;;;;0.93;0.60;;;13.30;99.90;;;;;;4914433;29;20625;-71
2023/10/16 13:38:14;;;;;;;0.80;0.40;;;13.10;99.90;;;;;;4915516;29;20241;-72
2023/10/16 13:40:43;;;;;;;4.03;0.40;;;12.80;99.90;;;;;;4914823;29;20243;-72
2023/10/16 13:43:16;;;;;;;0.80;0.50;;;12.70;99.90;;;;;;4914760;29;20220;-72
2023/10/16 13:45:43;;;;;;;0.73;0.33;;;12.90;99.90;;;;;;4914327;29;20214;-72
2023/10/16 13:48:10;;;;;;;1.90;0.50;;;12.90;99.90;;;;;;4914918;29;20252;-73
2023/10/16 13:50:40;;;;;;;1.47;0.50;;;12.90;99.90;;;;;;4914338;29;20231;-77
2023/10/16 13:53:08;;;;;;;0.87;0.33;;;12.70;99.90;;;;;;4915628;29;20248;-73
2023/10/16 13:55:36;;;;;;;0.80;0.30;;;12.60;99.90;;;;;;4915323;29;20267;-74
2023/10/16 13:58:05;;;;;;;1.90;0.37;;;12.50;99.90;;;;;;4914893;29;20277;-72
2023/10/16 14:00:35;;;;;;;2.17;0.40;;;12.50;99.90;;;;;;4915098;29;20256;-72
2023/10/16 14:03:08;;;;;;;0.80;0.30;;;12.40;99.90;;;;;;4914487;29;20732;-73
2023/10/16 14:05:38;;;;;;;1.40;0.30;;;12.40;99.90;;;;;;4914876;29;20213;-77
2023/10/16 14:08:09;;;;;;;2.13;0.30;;;12.40;99.90;;;;;;4915286;29;20217;-80
2023/10/16 14:10:45;;;;;;;1.83;0.63;;;12.60;99.90;;;;;;4914270;29;20269;-78
2023/10/16 14:13:18;;;;;;;2.83;0.50;;;12.70;99.90;;;;;;4914595;29;20220;-73
2023/10/16 14:15:46;;;;;;;1.30;0.60;;;12.70;99.90;;;;;;4911583;29;20225;-74
2023/10/16 14:18:16;;;;;;;2.17;0.40;;;12.60;99.90;;;;;;4915039;29;20935;-75
2023/10/16 14:20:45;;;;;;;0.87;0.40;;;12.50;99.90;;;;;;4914560;29;20229;-75
2023/10/16 14:23:13;;;;;;;1.67;0.30;;;12.60;99.90;;;;;;4914756;29;20205;-74
2023/10/16 14:25:47;;;;;;;1.07;0.23;;;12.50;99.90;;;;;;4914431;29;20209;-74
2023/10/16 14:28:27;;;;;;;0.43;0.27;;;12.40;99.90;;;;;;4914330;29;20216;-75
2023/10/16 14:30:56;;;;;;;0.77;0.27;;;12.50;99.90;;;;;;4915512;29;20248;-74
2023/10/16 14:33:28;;;;;;;1.53;0.40;;;12.50;99.90;;;;;;4916179;29;20637;-74
2023/10/16 14:35:56;;;;;;;1.30;0.47;;;12.60;99.90;;;;;;4915991;29;20234;-76
2023/10/16 14:38:23;;;;;;;0.63;0.37;;;12.70;99.90;;;;;;4916173;29;20573;-74
2023/10/16 14:40:55;;;;;;;3.10;0.87;;;12.60;99.90;;;;;;4916162;29;20253;-73
2023/10/16 14:43:22;;;;;;;1.17;0.40;;;12.60;99.90;;;;;;4915910;29;20265;-75
2023/10/16 14:45:53;;;;;;;0.80;0.40;;;12.70;99.90;;;;;;4915849;29;20222;-73
2023/10/16 14:48:22;;;;;;;1.93;0.70;;;12.70;99.90;;;;;;4916026;29;20220;-74
2023/10/16 14:50:50;;;;;;;1.63;0.40;;;12.70;99.90;;;;;;4916135;29;20233;-74
2023/10/16 14:53:19;;;;;;;1.67;0.60;;;12.80;99.90;;;;;;4916301;29;20233;-75
2023/10/16 14:55:48;;;;;;;3.27;1.90;;;12.90;99.90;;;;;;4915901;29;20229;-75
2023/10/16 14:58:18;;;;;;;2.20;0.50;;;12.80;99.90;;;;;;4916211;29;20304;-74
2023/10/16 15:00:48;;;;;;;0.70;0.40;;;12.90;99.90;;;;;;4915799;29;20280;-75
2023/10/16 15:03:16;;;;;;;1.80;0.70;;;12.90;99.90;;;;;;4916201;29;20306;-74
2023/10/16 15:05:45;;;;;;;2.30;0.60;;;12.70;99.90;;;;;;4911604;29;20237;-76
2023/10/16 15:08:13;;;;;;;1.60;0.50;;;12.70;99.90;;;;;;4915713;29;20214;-75
2023/10/16 15:10:44;;;;;;;2.33;0.50;;;12.60;99.90;;;;;;4915879;29;20270;-75
2023/10/16 15:13:14;;;;;;;3.57;0.60;;;12.70;99.90;;;;;;4896944;29;20242;-74
2023/10/16 15:15:43;;;;;;;1.63;0.50;;;12.80;99.90;;;;;;4911117;29;20617;-74
2023/10/16 15:18:11;;;;;;;1.00;0.67;;;12.60;99.90;;;;;;4919609;29;20224;-74
2023/10/16 15:20:39;;;;;;;2.97;0.60;;;12.50;99.90;;;;;;4919000;29;20736;-74
2023/10/16 15:23:09;;;;;;;1.53;0.63;;;12.50;99.90;;;;;;4919009;29;20498;-74
2023/10/16 15:25:37;;;;;;;0.93;0.60;;;12.60;99.90;;;;;;4918641;29;20221;-74
2023/10/16 15:28:06;;;;;;;0.60;0.30;;;12.60;99.90;;;;;;4918804;29;20209;-75
2023/10/16 15:30:33;;;;;;;1.90;0.80;;;12.60;99.90;;;;;;4919145;29;20260;-76
2023/10/16 15:33:02;;;;;;;1.07;0.40;;;12.40;99.90;;;;;;4919406;29;20680;-74
2023/10/16 15:35:29;;;;;;;1.73;0.40;;;12.50;99.90;;;;;;4918457;29;20248;-75
2023/10/16 15:37:57;;;;;;;1.13;0.47;;;12.50;99.90;;;;;;4918928;29;20245;-74
2023/10/16 15:40:26;;;;;;;1.20;0.70;;;12.40;99.90;;;;;;4918645;29;20257;-74
2023/10/16 15:42:57;;;;;;;1.47;0.40;;;12.40;99.90;;;;;;4918561;29;20214;-74
2023/10/16 15:45:25;;;;;;;2.07;0.60;;;12.30;99.90;;;;;;4918450;29;20617;-74
2023/10/16 15:47:52;;;;;;;0.90;0.60;;;12.30;99.90;;;;;;4918899;29;20240;-74
2023/10/16 15:50:20;;;;;;;2.50;0.43;;;12.40;99.90;;;;;;4918791;29;20221;-75
2023/10/16 15:52:47;;;;;;;1.27;0.37;;;12.40;99.90;;;;;;4918723;29;20653;-74
2023/10/16 15:55:17;;;;;;;0.90;0.60;;;12.50;99.90;;;;;;4918295;29;20303;-73
2023/10/16 15:57:46;;;;;;;1.23;0.50;;;12.50;99.90;;;;;;4918595;29;20249;-74
2023/10/16 16:00:17;;;;;;;0.73;0.40;;;12.40;99.90;;;;;;4918532;29;20261;-74
2023/10/16 16:02:44;;;;;;;1.47;0.47;;;12.50;99.90;;;;;;4907005;29;20240;-74
2023/10/16 16:05:12;;;;;;;1.20;0.57;;;12.50;99.90;;;;;;4901183;29;20265;-73
2023/10/16 16:07:39;;;;;;;1.60;0.63;;;12.50;99.90;;;;;;4915959;29;20206;-74
2023/10/16 16:10:10;;;;;;;2.53;0.60;;;12.40;99.90;;;;;;4918324;29;20303;-74
2023/10/16 16:12:39;;;;;;;1.20;0.60;;;12.20;99.90;;;;;;4918309;29;20658;-74
2023/10/16 16:15:07;;;;;;;0.97;0.30;;;12.10;99.90;;;;;;4918146;29;20212;-74
2023/10/16 16:17:35;;;;;;;2.67;0.73;;;12.00;99.90;;;;;;4917632;29;20276;-74
2023/10/16 16:20:02;;;;;;;2.20;0.50;;;12.00;99.90;;;;;;4918127;29;20205;-74
2023/10/16 16:22:31;;;;;;;1.17;0.43;;;11.80;99.90;;;;;;4918214;29;20248;-74
2023/10/16 16:25:00;;;;;;;1.33;0.47;;;11.80;99.90;;;;;;4918113;29;20281;-74
2023/10/16 16:27:28;;;;;;;1.27;0.50;;;11.90;99.90;;;;;;4917495;29;20217;-74
2023/10/16 16:29:55;;;;;;;0.30;0.20;;;11.80;99.90;;;;;;4917741;29;20237;-74
2023/10/16 16:32:21;;;;;;;1.00;0.40;;;11.80;99.90;;;;;;4917855;29;20296;-74
2023/10/16 16:34:50;;;;;;;1.70;0.70;;;11.70;99.90;;;;;;4917318;29;20260;-74
2023/10/16 16:37:17;;;;;;;0.60;0.33;;;11.70;99.90;;;;;;4917617;29;20267;-74
2023/10/16 16:39:45;;;;;;;2.07;0.57;;;11.70;99.90;;;;;;4917926;29;20213;-75
2023/10/16 16:42:13;;;;;;;1.23;0.40;;;11.80;99.90;;;;;;4917568;29;20233;-74
2023/10/16 16:44:41;;;;;;;0.70;0.40;;;11.80;99.90;;;;;;4917859;29;20282;-74
2023/10/16 16:47:08;;;;;;;1.00;0.60;;;11.60;99.90;;;;;;4901778;29;20219;-73
2023/10/16 16:49:35;;;;;;;1.80;0.40;;;11.50;99.90;;;;;;4898852;29;20239;-74
2023/10/16 16:52:04;;;;;;;2.07;0.77;;;11.40;99.90;;;;;;4915755;29;20422;-74
2023/10/16 16:54:31;;;;;;;2.57;0.70;;;11.40;99.90;;;;;;4917580;29;20661;-74
2023/10/16 16:56:58;;;;;;;1.30;0.77;;;11.30;99.90;;;;;;4917074;29;20735;-74
2023/10/16 16:59:27;;;;;;;1.23;0.70;;;11.50;99.90;;;;;;4910917;29;20218;-74
2023/10/16 17:01:56;;;;;;;1.57;0.90;;;11.50;99.90;;;;;;4913024;29;20250;-74
2023/10/16 17:04:23;;;;;;;4.20;1.10;;;11.50;99.90;;;;;;4916875;29;20672;-75
2023/10/16 17:06:52;;;;;;;4.47;2.40;;;11.50;99.90;;;;;;4913054;29;20615;-73
2023/10/16 17:09:19;;;;;;;1.73;0.77;;;11.50;99.90;;;;;;4917546;29;20209;-73
2023/10/16 17:11:48;;;;;;;5.57;0.90;;;11.30;99.90;;;;;;4916379;29;20261;-74
2023/10/16 17:14:15;;;;;;;2.47;0.70;;;11.20;99.90;;;;;;4916554;29;20237;-74
2023/10/16 17:16:45;;;;;;;3.17;0.87;;;11.10;99.90;;;;;;4916088;29;20712;-76
2023/10/16 17:19:14;;;;;;;1.70;0.70;;;11.20;99.90;;;;;;4916057;29;20718;-75
2023/10/16 17:21:43;;;;;;;1.57;0.90;;;11.10;99.90;;;;;;4916257;29;20225;-76
2023/10/16 17:24:11;;;;;;;4.77;2.10;;;11.10;99.90;;;;;;4916565;29;20213;-76
2023/10/16 17:26:38;;;;;;;1.40;0.83;;;11.00;99.90;;;;;;4916502;29;20213;-76
2023/10/16 17:29:07;;;;;;;2.70;0.77;;;11.10;99.90;;;;;;4916377;29;20237;-77
2023/10/16 17:31:35;;;;;;;2.77;1.43;;;11.00;99.90;;;;;;4912481;29;20230;-75
2023/10/16 17:34:05;;;;;;;1.33;0.90;;;10.90;99.90;;;;;;4908607;29;20313;-75
2023/10/16 17:36:33;;;;;;;2.03;0.90;;;10.80;99.90;;;;;;4915833;29;20611;-77
2023/10/16 17:39:02;;;;;;;3.00;0.83;;;10.90;99.90;;;;;;4915238;29;20246;-76
2023/10/16 17:41:29;;;;;;;3.23;1.17;;;10.80;99.90;;;;;;4915823;29;20316;-74
2023/10/16 17:43:56;;;;;;;1.87;1.00;;;10.80;99.90;;;;;;4916498;29;20296;-73
2023/10/16 17:46:23;;;;;;;5.00;0.80;;;10.70;99.90;;;;;;4916315;29;20201;-75
2023/10/16 17:48:50;;;;;;;4.43;1.07;;;10.70;99.90;;;;;;4916558;29;20300;-75
2023/10/16 17:51:19;;;;;;;1.63;0.80;;;10.60;99.90;;;;;;4915752;29;20253;-75
2023/10/16 17:53:46;;;;;;;1.90;1.20;;;10.60;99.90;;;;;;4916050;29;20213;-76
2023/10/16 17:56:13;;;;;;;1.93;1.07;;;10.60;99.90;;;;;;4915826;29;20239;-76
2023/10/16 17:58:40;;;;;;;2.77;1.20;;;10.60;99.90;;;;;;4916425;29;20328;-73
2023/10/16 18:01:12;;;;;;;3.00;1.33;;;10.60;99.90;;;;;;4915919;29;20273;-74
2023/10/16 18:03:39;;;;;;;7.50;1.57;;;10.60;99.90;;;;;;4915482;29;20446;-76
2023/10/16 18:06:07;;;;;;;2.93;1.27;;;10.70;99.90;;;;;;4910894;29;20253;-74
2023/10/16 18:08:35;;;;;;;2.27;1.30;;;10.60;99.90;;;;;;4903958;29;20218;-75
2023/10/16 18:11:02;;;;;;;2.40;1.13;;;10.60;99.90;;;;;;4915947;29;20289;-74
2023/10/16 18:13:32;;;;;;;2.57;1.60;;;10.60;99.90;;;;;;4915931;29;20296;-77
2023/10/16 18:16:01;;;;;;;3.00;1.60;;;10.50;99.90;;;;;;4915624;29;20210;-75
2023/10/16 18:18:28;;;;;;;2.87;1.00;;;10.50;99.90;;;;;;4915635;29;20244;-74
2023/10/16 18:20:56;;;;;;;3.40;1.30;;;10.50;99.90;;;;;;4903179;29;20229;-74
2023/10/16 18:23:23;;;;;;;2.03;1.00;;;10.40;99.90;;;;;;4915829;29;20680;-75
2023/10/16 18:25:51;;;;;;;2.40;1.10;;;10.50;99.90;;;;;;4916126;29;20245;-74
2023/10/16 18:28:18;;;;;;;3.57;1.30;;;10.60;99.90;;;;;;4916112;29;20220;-74
2023/10/16 18:30:47;;;;;;;2.97;1.13;;;10.50;99.90;;;;;;4913717;29;20853;-75
2023/10/16 18:33:14;;;;;;;5.80;1.83;;;10.50;99.90;;;;;;4913988;29;20711;-74
2023/10/16 18:35:41;;;;;;;1.93;1.00;;;10.50;99.90;;;;;;4915826;29;20629;-75
2023/10/16 18:38:11;;;;;;;2.10;1.00;;;10.40;99.90;;;;;;4915080;29;20241;-75
2023/10/16 18:40:38;;;;;;;3.87;1.43;;;10.30;99.90;;;;;;4915316;29;20229;-75
2023/10/16 18:43:07;;;;;;;2.33;1.07;;;10.20;99.90;;;;;;4915847;29;20225;-74
2023/10/16 18:45:36;;;;;;;3.60;1.50;;;10.30;99.90;;;;;;4915839;29;20213;-75
2023/10/16 18:48:04;;;;;;;3.03;0.87;;;10.30;99.90;;;;;;4915290;29;20265;-74
2023/10/16 18:50:32;;;;;;;4.50;1.00;;;10.20;99.90;;;;;;4918652;29;20268;-75
2023/10/16 18:53:00;;;;;;;2.50;1.10;;;10.20;99.90;;;;;;4919331;29;20246;-74
2023/10/16 18:55:27;;;;;;;2.60;0.83;;;10.10;99.90;;;;;;4919459;29;20229;-75
2023/10/16 18:57:55;;;;;;;1.33;0.70;;;10.10;99.90;;;;;;4918504;29;20336;-75
2023/10/16 19:00:24;;;;;;;3.83;0.80;;;10.10;99.90;;;;;;4919191;29;20226;-74
2023/10/16 19:02:55;;;;;;;3.93;1.30;;;10.10;99.90;;;;;;4918302;29;20296;-73
2023/10/16 19:05:22;;;;;;;2.07;1.00;;;10.00;99.90;;;;;;4918990;29;20297;-73
2023/10/16 19:07:50;;;;;;;0.90;0.70;;;10.10;99.90;;;;;;4918680;29;20636;-76
2023/10/16 19:10:17;;;;;;;3.77;0.80;;;9.90;99.90;;;;;;4919295;29;20315;-77
2023/10/16 19:12:45;;;;;;;2.87;1.03;;;9.90;99.90;;;;;;4918951;29;20233;-76
2023/10/16 19:15:12;;;;;;;1.50;0.87;;;9.90;99.90;;;;;;4918989;29;20221;-75
2023/10/16 19:17:43;;;;;;;1.70;0.73;;;10.00;99.90;;;;;;4919011;29;20276;-75
2023/10/16 19:20:10;;;;;;;1.20;0.70;;;9.90;99.90;;;;;;4918885;29;20597;-75
2023/10/16 19:22:37;;;;;;;3.67;0.80;;;9.80;99.90;;;;;;4918918;29;20206;-75
2023/10/16 19:25:07;;;;;;;4.57;1.47;;;9.90;99.90;;;;;;4918492;29;20299;-76
2023/10/16 19:27:36;;;;;;;1.27;0.90;;;9.90;99.90;;;;;;4918738;29;20229;-76
2023/10/16 19:30:08;;;;;;;5.03;1.03;;;9.70;99.90;;;;;;4919292;29;20214;-76
2023/10/16 19:32:36;;;;;;;1.97;1.07;;;9.70;99.90;;;;;;4919110;29;20542;-75
2023/10/16 19:35:05;;;;;;;2.83;1.27;;;9.60;99.90;;;;;;4903604;29;20241;-75
2023/10/16 19:37:34;;;;;;;5.07;1.80;;;9.60;99.90;;;;;;4910260;29;20246;-76
2023/10/16 19:40:11;;;;;;;1.70;1.00;;;9.60;99.90;;;;;;4918100;29;20248;-76
2023/10/16 19:42:39;;;;;;;3.23;0.90;;;9.60;99.90;;;;;;4918752;29;20687;-76
2023/10/16 19:45:09;;;;;;;1.77;1.00;;;9.50;99.90;;;;;;4918605;29;20248;-76
2023/10/16 19:47:36;;;;;;;1.87;1.03;;;9.50;99.90;;;;;;4918418;29;20669;-76
2023/10/16 19:50:09;;;;;;;2.83;1.30;;;9.50;99.90;;;;;;4918292;29;20220;-76
2023/10/16 19:52:37;;;;;;;2.73;1.40;;;9.50;99.90;;;;;;4918360;29;20213;-76
2023/10/16 19:55:05;;;;;;;2.33;0.97;;;9.40;99.90;;;;;;4919074;29;20210;-75
2023/10/16 19:57:32;;;;;;;8.73;1.43;;;9.40;99.90;;;;;;4918613;29;20240;-76
2023/10/16 19:59:59;;;;;;;2.50;1.10;;;9.40;99.90;;;;;;4918000;29;20251;-76
2023/10/16 20:02:26;;;;;;;1.80;1.00;;;9.40;99.90;;;;;;4917215;29;20214;-75
2023/10/16 20:04:53;;;;;;;4.47;1.10;;;9.40;99.90;;;;;;4918787;29;20625;-76
2023/10/16 20:07:24;;;;;;;2.03;1.10;;;9.40;99.90;;;;;;4917741;29;20237;-76
2023/10/16 20:09:51;;;;;;;2.43;1.20;;;9.40;99.90;;;;;;4918289;29;20665;-75
2023/10/16 20:12:18;;;;;;;2.17;1.00;;;9.50;99.90;;;;;;4917770;29;20289;-76
2023/10/16 20:14:46;;;;;;;6.00;0.97;;;9.50;99.90;;;;;;4918567;29;20224;-76
2023/10/16 20:17:13;;;;;;;2.07;1.43;;;9.60;99.90;;;;;;4918318;29;20206;-76
2023/10/16 20:19:41;;;;;;;5.13;1.43;;;9.60;99.90;;;;;;4917970;29;20210;-75
2023/10/16 20:22:12;;;;;;;3.17;1.20;;;9.60;99.90;;;;;;4917767;29;20230;-75
2023/10/16 20:24:40;;;;;;;1.23;0.97;;;9.60;99.90;;;;;;4917681;29;20691;-76
2023/10/16 20:27:08;;;;;;;3.70;1.23;;;9.50;99.90;;;;;;4917700;29;20253;-76
2023/10/16 20:29:35;;;;;;;1.87;1.27;;;9.50;99.90;;;;;;4918062;29;20221;-76
2023/10/16 20:32:04;;;;;;;2.70;1.50;;;9.50;99.90;;;;;;4917803;29;20589;-76
2023/10/16 20:34:31;;;;;;;5.03;1.30;;;9.40;99.90;;;;;;4917390;29;20222;-76
2023/10/16 20:36:57;;;;;;;5.43;1.50;;;9.40;99.90;;;;;;4917089;29;21009;-76
2023/10/16 20:39:27;;;;;;;2.13;1.30;;;9.40;99.90;;;;;;4917784;29;20669;-76
2023/10/16 20:41:56;;;;;;;2.50;1.30;;;9.40;99.90;;;;;;4917303;29;20661;-76